createdAt,value
2018-05-07T00:01:16.311Z,4.17
2018-05-07T00:03:43.715Z,4.27
2018-05-07T00:06:10.835Z,3.73
2018-05-07T00:08:37.523Z,3.77
2018-05-07T00:11:04.317Z,3.87
2018-05-07T00:13:31.000Z,3.30
2018-05-07T00:15:57.634Z,3.97
2018-05-07T00:18:25.805Z,3.80
2018-05-07T00:20:52.580Z,3.93
2018-05-07T00:23:20.057Z,3.87
2018-05-07T00:25:46.713Z,3.67
2018-05-07T00:28:13.391Z,3.97
2018-05-07T00:30:40.286Z,4.17
2018-05-07T00:33:07.005Z,4.13
2018-05-07T00:35:33.674Z,3.80
2018-05-07T00:38:00.470Z,4.30
2018-05-07T00:40:27.245Z,4.13
2018-05-07T00:42:54.422Z,4.83
2018-05-07T00:45:21.106Z,4.27
2018-05-07T00:47:48.526Z,4.30
2018-05-07T00:50:16.709Z,4.57
2018-05-07T00:52:44.938Z,4.40
2018-05-07T00:55:19.901Z,3.77
2018-05-07T00:57:46.561Z,4.73
2018-05-07T01:00:13.451Z,4.13
2018-05-07T01:02:40.204Z,4.67
2018-05-07T01:05:06.860Z,3.97
2018-05-07T01:07:33.672Z,3.80
2018-05-07T01:10:00.493Z,3.90
2018-05-07T01:12:27.185Z,4.57
2018-05-07T01:14:53.996Z,4.10
2018-05-07T01:17:20.675Z,3.63
2018-05-07T01:19:48.815Z,4.40
2018-05-07T01:22:15.504Z,4.63
2018-05-07T01:24:42.939Z,4.83
2018-05-07T01:27:09.699Z,5.20
2018-05-07T01:29:37.119Z,4.17
2018-05-07T01:32:03.863Z,4.37
2018-05-07T01:34:31.161Z,5.23
2018-05-07T01:36:57.863Z,4.50
2018-05-07T01:39:24.557Z,4.80
2018-05-07T01:41:51.307Z,4.17
2018-05-07T01:44:17.944Z,4.50
2018-05-07T01:46:44.766Z,4.23
2018-05-07T01:49:12.368Z,4.57
2018-05-07T01:51:39.012Z,4.90
2018-05-07T01:54:05.669Z,4.90
2018-05-07T01:56:33.135Z,4.68
2018-05-07T01:58:59.922Z,5.30
2018-05-07T02:01:26.674Z,4.70
2018-05-07T02:03:53.542Z,4.72
2018-05-07T02:06:20.211Z,4.60
2018-05-07T02:08:47.669Z,4.83
2018-05-07T02:11:15.152Z,4.93
2018-05-07T02:13:41.789Z,5.77
2018-05-07T02:16:08.474Z,5.47
2018-05-07T02:18:35.247Z,4.50
2018-05-07T02:21:01.942Z,5.37
2018-05-07T02:23:28.836Z,5.13
2018-05-07T02:25:55.506Z,5.00
2018-05-07T02:28:22.946Z,5.32
2018-05-07T02:30:49.644Z,4.67
2018-05-07T02:33:17.828Z,5.03
2018-05-07T02:35:45.323Z,4.47
2018-05-07T02:38:12.013Z,5.00
2018-05-07T02:40:39.461Z,5.03
2018-05-07T02:43:06.153Z,5.10
2018-05-07T02:45:32.824Z,5.30
2018-05-07T02:48:00.260Z,5.40
2018-05-07T02:50:26.894Z,5.53
2018-05-07T02:52:53.627Z,5.35
2018-05-07T02:55:20.777Z,5.77
2018-05-07T02:57:47.436Z,5.50
2018-05-07T03:00:14.132Z,5.95
2018-05-07T03:02:40.823Z,6.15
2018-05-07T03:05:08.250Z,5.45
2018-05-07T03:07:35.089Z,6.25
2018-05-07T03:10:01.809Z,6.32
2018-05-07T03:12:28.743Z,5.30
2018-05-07T03:14:55.486Z,5.65
2018-05-07T03:17:22.199Z,6.07
2018-05-07T03:19:48.888Z,6.47
2018-05-07T03:22:15.564Z,6.15
2018-05-07T03:24:42.412Z,6.60
2018-05-07T03:27:09.074Z,5.68
2018-05-07T03:29:36.480Z,6.07
2018-05-07T03:32:03.191Z,6.07
2018-05-07T03:34:29.895Z,5.90
2018-05-07T03:36:57.402Z,5.80
2018-05-07T03:39:24.459Z,5.75
2018-05-07T03:41:51.191Z,5.90
2018-05-07T03:44:17.929Z,5.50
2018-05-07T03:46:44.624Z,5.40
2018-05-07T03:49:12.202Z,5.97
2018-05-07T03:51:39.595Z,5.00
2018-05-07T03:54:07.030Z,6.65
2018-05-07T03:56:33.682Z,5.72
2018-05-07T03:59:00.395Z,5.00
2018-05-07T04:01:27.082Z,5.72
2018-05-07T04:03:54.543Z,5.35
2018-05-07T04:06:21.230Z,5.43
2018-05-07T04:08:47.907Z,5.97
2018-05-07T04:11:16.313Z,5.40
2018-05-07T04:13:43.826Z,5.28
2018-05-07T04:16:10.574Z,5.53
2018-05-07T04:18:49.490Z,5.78
2018-05-07T04:21:17.946Z,5.97
2018-05-07T04:23:56.899Z,5.00
2018-05-07T04:26:24.538Z,5.47
2018-05-07T04:28:51.928Z,5.82
2018-05-07T04:31:18.729Z,6.37
2018-05-07T04:33:46.147Z,5.62
2018-05-07T04:36:12.861Z,5.65
2018-05-07T04:38:39.582Z,5.82
2018-05-07T04:41:06.238Z,5.32
2018-05-07T04:43:33.058Z,5.82
2018-05-07T04:45:59.724Z,6.15
2018-05-07T04:48:26.782Z,5.93
2018-05-07T04:50:53.495Z,6.05
2018-05-07T04:53:20.159Z,5.72
2018-05-07T04:55:46.989Z,6.05
2018-05-07T04:58:13.716Z,7.43
2018-05-07T05:00:40.375Z,6.50
2018-05-07T05:03:07.070Z,6.73
2018-05-07T05:05:33.752Z,6.63
2018-05-07T05:08:00.439Z,6.70
2018-05-07T05:10:27.857Z,7.83
2018-05-07T05:12:54.669Z,7.15
2018-05-07T05:15:21.525Z,7.37
2018-05-07T05:17:48.160Z,6.93
2018-05-07T05:20:14.836Z,6.33
2018-05-07T05:22:42.753Z,5.90
2018-05-07T05:25:09.438Z,5.63
2018-05-07T05:27:36.131Z,5.17
2018-05-07T05:30:02.907Z,5.30
2018-05-07T05:32:29.618Z,4.43
2018-05-07T05:34:56.310Z,4.17
2018-05-07T05:37:23.791Z,4.30
2018-05-07T05:39:50.574Z,3.83
2018-05-07T05:42:17.228Z,4.00
2018-05-07T05:44:43.865Z,3.60
2018-05-07T05:47:10.708Z,3.53
2018-05-07T05:49:37.422Z,3.57
2018-05-07T05:52:04.140Z,3.50
2018-05-07T05:54:30.988Z,3.60
2018-05-07T05:56:57.727Z,3.50
2018-05-07T05:59:24.368Z,3.13
2018-05-07T06:01:51.044Z,3.37
2018-05-07T06:04:17.945Z,3.43
2018-05-07T06:06:44.685Z,3.50
2018-05-07T06:09:11.600Z,3.03
2018-05-07T06:11:39.199Z,3.47
2018-05-07T06:14:05.884Z,3.30
2018-05-07T06:16:32.668Z,2.93
2018-05-07T06:18:59.357Z,3.40
2018-05-07T06:21:26.019Z,3.67
2018-05-07T06:23:53.833Z,3.40
2018-05-07T06:26:20.759Z,3.63
2018-05-07T06:28:47.389Z,3.17
2018-05-07T06:31:14.081Z,2.93
2018-05-07T06:33:40.736Z,2.80
2018-05-07T06:36:07.407Z,2.97
2018-05-07T06:38:34.098Z,2.87
2018-05-07T06:41:00.754Z,2.90
2018-05-07T06:43:28.159Z,3.30
2018-05-07T06:45:54.931Z,2.83
2018-05-07T06:48:21.620Z,2.87
2018-05-07T06:50:48.711Z,3.00
2018-05-07T06:53:15.405Z,2.87
2018-05-07T06:55:42.116Z,2.67
2018-05-07T06:58:08.885Z,2.70
2018-05-07T07:00:35.701Z,3.10
2018-05-07T07:03:03.178Z,2.77
2018-05-07T07:05:29.817Z,2.73
2018-05-07T07:07:56.466Z,2.80
2018-05-07T07:10:23.404Z,2.63
2018-05-07T07:12:50.060Z,2.60
2018-05-07T07:15:16.739Z,2.80
2018-05-07T07:17:43.625Z,2.47
2018-05-07T07:20:10.277Z,2.97
2018-05-07T07:22:36.931Z,3.00
2018-05-07T07:25:03.631Z,2.97
2018-05-07T07:27:30.316Z,2.17
2018-05-07T07:29:57.121Z,2.60
2018-05-07T07:32:24.190Z,2.70
2018-05-07T07:34:50.906Z,3.10
2018-05-07T07:37:17.626Z,2.90
2018-05-07T07:39:45.045Z,2.80
2018-05-07T07:42:11.692Z,2.70
2018-05-07T07:44:39.202Z,2.70
2018-05-07T07:47:05.877Z,2.30
2018-05-07T07:49:32.985Z,2.33
2018-05-07T07:51:59.619Z,2.63
2018-05-07T07:54:26.287Z,2.20
2018-05-07T07:56:53.101Z,2.97
2018-05-07T07:59:19.873Z,2.40
2018-05-07T08:01:46.539Z,2.47
2018-05-07T08:04:14.029Z,2.57
2018-05-07T08:06:40.718Z,2.40
2018-05-07T08:09:07.356Z,2.23
2018-05-07T08:11:35.049Z,2.43
2018-05-07T08:14:02.500Z,2.40
2018-05-07T08:16:29.895Z,2.10
2018-05-07T08:18:56.546Z,2.47
2018-05-07T08:21:23.244Z,2.70
2018-05-07T08:23:50.799Z,2.50
2018-05-07T08:26:18.248Z,2.63
2018-05-07T08:28:44.925Z,2.63
2018-05-07T08:31:11.607Z,2.43
2018-05-07T08:33:38.277Z,2.57
2018-05-07T08:36:04.963Z,2.23
2018-05-07T08:38:31.634Z,2.43
2018-05-07T08:40:58.491Z,2.50
2018-05-07T08:43:25.891Z,2.50
2018-05-07T08:45:52.578Z,2.50
2018-05-07T08:48:19.259Z,2.60
2018-05-07T08:50:45.929Z,2.87
2018-05-07T08:53:12.678Z,3.27
2018-05-07T08:55:39.282Z,2.40
2018-05-07T08:58:05.979Z,2.47
2018-05-07T09:00:33.393Z,2.53
2018-05-07T09:03:00.181Z,2.37
2018-05-07T09:05:26.839Z,2.73
2018-05-07T09:07:53.491Z,2.70
2018-05-07T09:10:20.205Z,2.77
2018-05-07T09:12:46.918Z,2.07
2018-05-07T09:15:14.320Z,2.70
2018-05-07T09:17:41.046Z,2.57
2018-05-07T09:20:08.300Z,2.57
2018-05-07T09:22:34.974Z,2.40
2018-05-07T09:25:01.609Z,2.37
2018-05-07T09:27:29.060Z,2.60
2018-05-07T09:29:55.876Z,2.73
2018-05-07T09:32:22.522Z,2.60
2018-05-07T09:34:49.153Z,2.60
2018-05-07T09:37:15.820Z,2.40
2018-05-07T09:39:42.458Z,2.60
2018-05-07T09:42:09.155Z,2.67
2018-05-07T09:44:35.814Z,2.53
2018-05-07T09:47:02.516Z,2.10
2018-05-07T09:49:30.071Z,2.03
2018-05-07T09:51:57.466Z,2.50
2018-05-07T09:54:24.675Z,2.60
2018-05-07T09:56:55.272Z,2.00
2018-05-07T09:59:21.890Z,2.30
2018-05-07T10:01:48.559Z,2.10
2018-05-07T10:04:15.224Z,2.20
2018-05-07T10:06:42.909Z,2.57
2018-05-07T10:09:09.574Z,2.53
2018-05-07T10:11:36.235Z,2.10
2018-05-07T10:14:02.993Z,2.90
2018-05-07T10:16:30.490Z,2.47
2018-05-07T10:18:57.330Z,2.70
2018-05-07T10:21:24.171Z,2.60
2018-05-07T10:23:50.984Z,2.43
2018-05-07T10:26:18.390Z,2.47
2018-05-07T10:28:45.063Z,2.67
2018-05-07T10:31:11.778Z,2.50
2018-05-07T10:33:38.484Z,2.63
2018-05-07T10:36:05.219Z,3.00
2018-05-07T10:38:31.884Z,2.60
2018-05-07T10:40:58.543Z,2.97
2018-05-07T10:43:25.263Z,2.50
2018-05-07T10:45:51.921Z,2.53
2018-05-07T10:48:18.718Z,3.03
2018-05-07T10:50:45.348Z,2.67
2018-05-07T10:53:12.030Z,3.20
2018-05-07T10:55:38.801Z,2.83
2018-05-07T10:58:05.882Z,2.83
2018-05-07T11:00:32.624Z,2.70
2018-05-07T11:02:59.363Z,2.63
2018-05-07T11:05:26.115Z,2.73
2018-05-07T11:07:52.778Z,2.43
2018-05-07T11:10:19.550Z,2.60
2018-05-07T11:12:47.309Z,2.70
2018-05-07T11:15:14.771Z,2.37
2018-05-07T11:17:42.260Z,2.13
2018-05-07T11:20:08.936Z,2.50
2018-05-07T11:22:35.617Z,2.47
2018-05-07T11:25:02.362Z,2.10
2018-05-07T11:27:28.999Z,2.63
2018-05-07T11:29:56.396Z,2.60
2018-05-07T11:32:23.240Z,2.30
2018-05-07T11:34:50.773Z,2.47
2018-05-07T11:37:17.442Z,2.47
2018-05-07T11:39:44.105Z,2.40
2018-05-07T11:42:11.602Z,2.60
2018-05-07T11:44:38.268Z,2.90
2018-05-07T11:47:04.941Z,2.67
2018-05-07T11:49:31.723Z,2.73
2018-05-07T11:51:58.461Z,2.60
2018-05-07T11:54:25.149Z,2.20
2018-05-07T11:56:51.941Z,2.53
2018-05-07T11:59:18.616Z,2.70
2018-05-07T12:01:45.305Z,2.40
2018-05-07T12:04:11.999Z,2.40
2018-05-07T12:06:38.646Z,2.87
2018-05-07T12:09:05.421Z,2.57
2018-05-07T12:11:32.110Z,2.60
2018-05-07T12:13:58.942Z,2.57
2018-05-07T12:16:25.580Z,3.07
2018-05-07T12:18:52.269Z,2.47
2018-05-07T12:21:19.734Z,2.50
2018-05-07T12:23:46.832Z,2.87
2018-05-07T12:26:13.483Z,2.83
2018-05-07T12:28:40.135Z,2.70
2018-05-07T12:31:07.604Z,2.70
2018-05-07T12:33:34.271Z,2.43
2018-05-07T12:36:00.930Z,2.70
2018-05-07T12:38:27.637Z,2.40
2018-05-07T12:40:54.300Z,3.03
2018-05-07T12:43:20.969Z,2.77
2018-05-07T12:45:47.658Z,2.50
2018-05-07T12:48:14.291Z,2.40
2018-05-07T12:50:41.040Z,2.50
2018-05-07T12:53:07.754Z,2.67
2018-05-07T12:55:35.267Z,2.13
2018-05-07T12:58:01.978Z,2.00
2018-05-07T13:00:28.672Z,2.50
2018-05-07T13:02:56.252Z,2.00
2018-05-07T13:05:23.663Z,2.03
2018-05-07T13:07:50.303Z,2.37
2018-05-07T13:10:17.215Z,2.50
2018-05-07T13:12:44.011Z,2.33
2018-05-07T13:15:12.186Z,2.03
2018-05-07T13:17:39.646Z,2.30
2018-05-07T13:20:06.831Z,2.13
2018-05-07T13:22:33.500Z,2.13
2018-05-07T13:25:00.277Z,2.50
2018-05-07T13:27:27.709Z,2.63
2018-05-07T13:29:54.450Z,2.20
2018-05-07T13:32:21.083Z,2.37
2018-05-07T13:34:47.786Z,2.53
2018-05-07T13:37:14.458Z,2.10
2018-05-07T13:39:41.126Z,3.00
2018-05-07T13:42:07.790Z,2.53
2018-05-07T13:44:34.541Z,2.60
2018-05-07T13:47:01.224Z,2.90
2018-05-07T13:49:27.916Z,2.67
2018-05-07T13:51:54.568Z,2.30
2018-05-07T13:54:21.422Z,2.30
2018-05-07T13:56:48.200Z,2.47
2018-05-07T13:59:14.834Z,2.30
2018-05-07T14:01:42.268Z,2.63
2018-05-07T14:04:08.914Z,2.57
2018-05-07T14:06:35.778Z,2.23
2018-05-07T14:09:03.281Z,2.20
2018-05-07T14:11:30.108Z,2.30
2018-05-07T14:13:56.736Z,2.37
2018-05-07T14:16:23.438Z,2.27
2018-05-07T14:18:50.126Z,2.70
2018-05-07T14:21:16.790Z,2.47
2018-05-07T14:23:43.474Z,2.50
2018-05-07T14:26:10.909Z,2.40
2018-05-07T14:28:38.039Z,1.77
2018-05-07T14:31:04.728Z,1.80
2018-05-07T14:33:31.488Z,2.10
2018-05-07T14:35:58.130Z,1.90
2018-05-07T14:38:24.824Z,2.07
2018-05-07T14:40:51.563Z,1.83
2018-05-07T14:43:18.228Z,2.33
2018-05-07T14:45:45.659Z,2.00
2018-05-07T14:48:13.158Z,1.90
2018-05-07T14:50:39.806Z,1.93
2018-05-07T14:53:06.425Z,2.13
2018-05-07T14:55:33.128Z,2.00
2018-05-07T14:58:00.601Z,1.80
2018-05-07T15:00:28.087Z,2.10
2018-05-07T15:02:54.720Z,1.80
2018-05-07T15:05:21.365Z,1.90
2018-05-07T15:07:48.073Z,1.50
2018-05-07T15:10:15.531Z,1.67
2018-05-07T15:12:42.977Z,1.67
2018-05-07T15:15:10.677Z,1.70
2018-05-07T15:17:37.416Z,1.70
2018-05-07T15:20:04.124Z,1.70
2018-05-07T15:22:31.531Z,1.43
2018-05-07T15:24:58.325Z,1.90
2018-05-07T15:27:25.698Z,1.70
2018-05-07T15:29:52.344Z,1.93
2018-05-07T15:32:19.044Z,1.80
2018-05-07T15:34:46.464Z,1.97
2018-05-07T15:37:13.111Z,2.00
2018-05-07T15:39:39.882Z,1.50
2018-05-07T15:42:07.278Z,1.70
2018-05-07T15:44:33.952Z,1.77
2018-05-07T15:47:00.724Z,1.70
2018-05-07T15:49:28.178Z,1.53
2018-05-07T15:51:54.922Z,1.90
2018-05-07T15:54:22.340Z,1.70
2018-05-07T15:56:49.500Z,1.80
2018-05-07T15:59:16.192Z,1.67
2018-05-07T16:01:42.825Z,2.07
2018-05-07T16:04:09.508Z,1.80
2018-05-07T16:06:36.173Z,1.63
2018-05-07T16:09:04.473Z,1.60
2018-05-07T16:11:31.875Z,2.50
2018-05-07T16:13:58.682Z,1.63
2018-05-07T16:16:25.370Z,1.70
2018-05-07T16:18:53.512Z,1.63
2018-05-07T16:21:20.197Z,2.10
2018-05-07T16:23:47.590Z,1.90
2018-05-07T16:26:14.289Z,1.70
2018-05-07T16:28:41.886Z,1.50
2018-05-07T16:31:08.604Z,1.57
2018-05-07T16:33:35.214Z,1.87
2018-05-07T16:36:01.893Z,1.50
2018-05-07T16:38:28.700Z,1.90
2018-05-07T16:40:55.348Z,1.77
2018-05-07T16:43:22.784Z,1.93
2018-05-07T16:45:49.549Z,1.60
2018-05-07T16:48:16.955Z,1.70
2018-05-07T16:50:43.747Z,1.73
2018-05-07T16:53:11.155Z,2.03
2018-05-07T16:55:37.904Z,1.87
2018-05-07T16:58:04.610Z,1.47
2018-05-07T17:00:31.258Z,1.30
2018-05-07T17:02:57.960Z,1.60
2018-05-07T17:05:24.604Z,1.30
2018-05-07T17:07:51.747Z,2.00
2018-05-07T17:10:19.160Z,2.17
2018-05-07T17:12:45.835Z,1.60
2018-05-07T17:15:13.250Z,1.83
2018-05-07T17:17:39.951Z,2.03
2018-05-07T17:20:07.361Z,1.87
2018-05-07T17:22:34.158Z,1.83
2018-05-07T17:25:00.897Z,2.13
2018-05-07T17:27:27.563Z,1.47
2018-05-07T17:29:54.256Z,1.70
2018-05-07T17:32:21.684Z,1.80
2018-05-07T17:34:48.897Z,1.77
2018-05-07T17:37:15.536Z,1.80
2018-05-07T17:39:42.191Z,1.93
2018-05-07T17:42:09.021Z,1.73
2018-05-07T17:47:49.951Z,1.50
2018-05-07T17:50:16.529Z,1.50
2018-05-07T17:52:43.230Z,1.90
2018-05-07T17:55:10.635Z,1.80
2018-05-07T17:57:37.444Z,1.70
2018-05-07T18:00:04.245Z,2.03
2018-05-07T18:02:30.900Z,2.03
2018-05-07T18:04:57.683Z,1.87
2018-05-07T18:07:24.341Z,1.80
2018-05-07T18:09:51.102Z,1.90
2018-05-07T18:12:17.711Z,2.03
2018-05-07T18:14:44.392Z,2.40
2018-05-07T18:17:11.256Z,2.00
2018-05-07T18:19:38.708Z,1.97
2018-05-07T18:22:06.104Z,2.27
2018-05-07T18:24:32.782Z,1.70
2018-05-07T18:26:59.451Z,2.00
2018-05-07T18:29:26.175Z,1.90
2018-05-07T18:31:53.666Z,2.07
2018-05-07T18:34:20.404Z,1.90
2018-05-07T18:36:47.136Z,1.97
2018-05-07T18:39:13.796Z,2.23
2018-05-07T18:41:40.598Z,2.10
2018-05-07T18:44:08.081Z,1.83
2018-05-07T18:46:34.752Z,2.10
2018-05-07T18:49:01.428Z,2.33
2018-05-07T18:51:28.839Z,2.13
2018-05-07T18:53:55.521Z,2.20
2018-05-07T18:56:22.891Z,2.07
2018-05-07T18:58:49.751Z,2.07
2018-05-07T19:01:16.464Z,2.10
2018-05-07T19:03:43.335Z,2.10
2018-05-07T19:06:10.194Z,2.10
2018-05-07T19:08:37.126Z,2.10
2018-05-07T19:11:04.279Z,1.77
2018-05-07T19:13:31.147Z,2.00
2018-05-07T19:15:57.851Z,2.30
2018-05-07T19:18:24.565Z,1.80
2018-05-07T19:20:51.253Z,2.53
2018-05-07T19:23:17.964Z,2.00
2018-05-07T19:25:44.643Z,1.90
2018-05-07T19:28:12.851Z,2.10
2018-05-07T19:30:39.622Z,1.80
2018-05-07T19:33:06.362Z,2.00
2018-05-07T19:35:33.090Z,2.13
2018-05-07T19:37:59.818Z,1.80
2018-05-07T19:40:27.238Z,1.90
2018-05-07T19:42:53.931Z,2.10
2018-05-07T19:45:20.583Z,1.97
2018-05-07T19:47:47.332Z,2.07
2018-05-07T19:50:13.996Z,1.93
2018-05-07T19:52:40.775Z,1.97
2018-05-07T19:55:07.507Z,1.97
2018-05-07T19:57:34.989Z,1.83
2018-05-07T20:00:01.731Z,2.53
2018-05-07T20:02:28.460Z,2.30
2018-05-07T20:04:55.313Z,1.90
2018-05-07T20:07:21.988Z,2.17
2018-05-07T20:09:48.894Z,2.30
2018-05-07T20:12:15.652Z,2.03
2018-05-07T20:14:42.287Z,2.00
2018-05-07T20:17:08.953Z,1.80
2018-05-07T20:19:35.704Z,1.97
2018-05-07T20:22:02.460Z,2.10
2018-05-07T20:24:29.612Z,1.90
2018-05-07T20:26:57.099Z,1.83
2018-05-07T20:29:23.739Z,2.47
2018-05-07T20:31:50.476Z,2.10
2018-05-07T20:34:17.175Z,2.27
2018-05-07T20:36:43.919Z,2.10
2018-05-07T20:39:10.664Z,2.13
2018-05-07T20:41:38.082Z,2.27
2018-05-07T20:44:04.865Z,1.70
2018-05-07T20:46:32.348Z,1.80
2018-05-07T20:48:59.075Z,2.17
2018-05-07T20:51:25.830Z,2.30
2018-05-07T20:53:52.478Z,2.00
2018-05-07T20:56:19.148Z,2.77
2018-05-07T20:58:45.848Z,2.20
2018-05-07T21:01:12.652Z,2.10
2018-05-07T21:03:40.089Z,2.40
2018-05-07T21:06:07.087Z,2.20
2018-05-07T21:08:33.795Z,2.20
2018-05-07T21:11:01.283Z,3.10
2018-05-07T21:13:27.967Z,2.87
2018-05-07T21:15:54.652Z,2.57
2018-05-07T21:18:21.467Z,2.50
2018-05-07T21:20:48.093Z,2.40
2018-05-07T21:23:15.563Z,2.70
2018-05-07T21:25:43.008Z,2.40
2018-05-07T21:28:09.704Z,2.20
2018-05-07T21:30:36.430Z,2.53
2018-05-07T21:33:03.064Z,2.60
2018-05-07T21:35:29.766Z,2.57
2018-05-07T21:37:56.621Z,2.50
2018-05-07T21:40:24.106Z,2.97
2018-05-07T21:42:50.739Z,2.33
2018-05-07T21:45:17.973Z,2.37
2018-05-07T21:47:44.739Z,2.73
2018-05-07T21:50:11.484Z,2.97
2018-05-07T21:52:38.150Z,2.93
2018-05-07T21:55:05.521Z,3.00
2018-05-07T21:57:32.944Z,3.13
2018-05-07T21:59:59.610Z,2.90
2018-05-07T22:02:26.256Z,3.07
2018-05-07T22:04:53.041Z,3.10
2018-05-07T22:07:19.790Z,3.47
2018-05-07T22:09:46.440Z,3.13
2018-05-07T22:12:13.169Z,3.33
2018-05-07T22:14:39.823Z,3.53
2018-05-07T22:17:06.601Z,3.60
2018-05-07T22:19:34.240Z,3.47
2018-05-07T22:22:01.648Z,2.93
2018-05-07T22:24:28.259Z,3.60
2018-05-07T22:26:54.895Z,2.90
2018-05-07T22:29:21.548Z,3.20
2018-05-07T22:31:48.272Z,3.40
2018-05-07T22:34:15.665Z,3.67
2018-05-07T22:36:42.335Z,3.43
2018-05-07T22:39:09.407Z,3.30
2018-05-07T22:41:36.798Z,3.30
2018-05-07T22:44:03.466Z,3.23
2018-05-07T22:46:30.156Z,3.83
2018-05-07T22:48:57.582Z,3.33
2018-05-07T22:51:25.032Z,3.43
2018-05-07T22:53:51.689Z,3.40
2018-05-07T22:56:18.315Z,3.30
2018-05-07T22:58:44.903Z,3.60
2018-05-07T23:01:11.648Z,3.33
2018-05-07T23:03:38.794Z,3.40
2018-05-07T23:06:05.451Z,3.87
2018-05-07T23:08:32.130Z,3.40
2018-05-07T23:10:59.573Z,3.70
2018-05-07T23:13:26.330Z,3.30
2018-05-07T23:15:53.760Z,3.37
2018-05-07T23:18:20.463Z,3.27
2018-05-07T23:20:47.202Z,3.33
2018-05-07T23:23:13.883Z,3.30
2018-05-07T23:25:40.646Z,3.13
2018-05-07T23:28:08.138Z,3.40
2018-05-07T23:30:34.768Z,3.50
2018-05-07T23:33:01.514Z,3.97
2018-05-07T23:35:28.256Z,3.83
2018-05-07T23:37:54.935Z,4.00
2018-05-07T23:40:21.585Z,3.90
2018-05-07T23:42:48.323Z,3.87
2018-05-07T23:45:15.076Z,3.73
2018-05-07T23:47:41.811Z,4.00
2018-05-07T23:50:08.593Z,4.00
2018-05-07T23:52:35.277Z,3.50
2018-05-07T23:55:02.207Z,3.90
2018-05-07T23:57:28.854Z,3.50
2018-05-07T23:59:56.287Z,3.67
